Time;durP1;ratioP1;P1;durP2;ratioP2;P2;SDS_P1;SDS_P2;PMS_P1;PMS_P2;Temp;Humidity;BMP_temperature;BMP_pressure;BME280_temperature;BME280_humidity;BME280_pressure;Samples;Min_cycle;Max_cycle;Signal;HPM_P1;HPM_P2
2022/12/08 00:01:27;;;;;;;17.40;7.50;;;;;;;-3.36;100.00;99851.60;1782363;80;20155;-69
2022/12/08 00:03:55;;;;;;;24.07;7.53;;;;;;;-3.36;100.00;99851.60;1782207;80;21015;-69
2022/12/08 00:09:33;;;;;;;26.03;8.40;;;;;;;-3.35;100.00;99865.19;1781934;80;21033;-68
2022/12/08 00:12:10;;;;;;;20.27;7.37;;;;;;;-3.33;100.00;99865.10;1782208;80;21022;-70
2022/12/08 00:14:41;;;;;;;18.53;7.03;;;;;;;-3.31;100.00;99855.28;1782807;80;21041;-69
2022/12/08 00:17:11;;;;;;;14.03;6.00;;;;;;;-3.29;100.00;99844.18;1781934;80;21431;-70
2022/12/08 00:19:38;;;;;;;13.00;5.40;;;;;;;-3.29;100.00;99825.19;1782131;80;21498;-69
2022/12/08 00:22:09;;;;;;;13.27;6.23;;;;;;;-3.27;100.00;99822.46;1782253;80;21037;-69
2022/12/08 00:24:38;;;;;;;15.67;6.17;;;;;;;-3.28;100.00;99819.42;1782321;80;21310;-70
2022/12/08 00:27:07;;;;;;;14.47;5.57;;;;;;;-3.28;100.00;99820.27;1782279;80;20982;-71
2022/12/08 00:29:35;;;;;;;16.83;6.47;;;;;;;-3.28;100.00;99814.13;1782083;80;21029;-69
2022/12/08 00:32:02;;;;;;;16.20;6.03;;;;;;;-3.27;100.00;99813.20;1782442;80;21487;-70
2022/12/08 00:34:30;;;;;;;16.67;6.27;;;;;;;-3.28;100.00;99799.11;1782001;80;21518;-70
2022/12/08 00:36:58;;;;;;;17.07;6.60;;;;;;;-3.26;100.00;99804.31;1782403;80;21002;-70
2022/12/08 00:39:25;;;;;;;12.27;5.50;;;;;;;-3.23;100.00;99811.23;1781931;80;20978;-70
2022/12/08 00:42:11;;;;;;;15.23;6.60;;;;;;;-3.21;100.00;99811.99;1782224;80;21034;-69
2022/12/08 00:44:45;;;;;;;15.37;5.93;;;;;;;-3.18;100.00;99810.50;1782069;80;21018;-68
2022/12/08 00:47:12;;;;;;;16.23;5.80;;;;;;;-3.15;100.00;99816.46;1782557;80;21467;-69
2022/12/08 00:49:40;;;;;;;15.63;5.90;;;;;;;-3.13;100.00;99810.61;1781947;80;21487;-69
2022/12/08 00:52:07;;;;;;;14.13;5.60;;;;;;;-3.11;100.00;99810.52;1782310;80;21017;-70
2022/12/08 00:54:34;;;;;;;13.30;5.67;;;;;;;-3.08;100.00;99816.48;1782304;80;21475;-71
2022/12/08 00:57:01;;;;;;;15.40;5.93;;;;;;;-3.04;100.00;99825.09;1781990;80;20994;-70
2022/12/08 00:59:28;;;;;;;14.60;5.40;;;;;;;-3.01;100.00;99813.02;1782367;80;20990;-68
2022/12/08 01:01:55;;;;;;;15.43;6.13;;;;;;;-3.00;100.00;99814.70;1782226;80;21073;-71
2022/12/08 01:04:24;;;;;;;16.47;6.00;;;;;;;-2.97;100.00;99823.78;1781984;80;21018;-69
2022/12/08 01:06:51;;;;;;;14.97;5.60;;;;;;;-2.96;100.00;99826.80;1782426;79;21018;-69
2022/12/08 01:09:18;;;;;;;15.53;5.60;;;;;;;-2.93;100.00;99824.45;1782406;80;21069;-70
2022/12/08 01:11:46;;;;;;;11.60;5.43;;;;;;;-2.92;100.00;99830.98;1782078;80;21026;-70
2022/12/08 01:14:13;;;;;;;14.93;6.00;;;;;;;-2.90;100.00;99821.64;1782079;80;21061;-69
2022/12/08 01:16:40;;;;;;;12.83;5.10;;;;;;;-2.92;100.00;99815.11;1781940;80;20994;-70
2022/12/08 01:19:10;;;;;;;12.60;5.00;;;;;;;-2.90;100.00;99805.28;1782368;80;21034;-69
2022/12/08 01:21:37;;;;;;;12.40;5.47;;;;;;;-2.88;100.00;99798.09;1782001;80;21010;-70
2022/12/08 01:24:05;;;;;;;12.83;5.37;;;;;;;-2.88;100.00;99801.22;1782464;80;20962;-69
2022/12/08 01:26:33;;;;;;;13.47;5.70;;;;;;;-2.86;100.00;99793.56;1782500;80;21022;-70
2022/12/08 01:29:00;;;;;;;16.17;6.17;;;;;;;-2.84;100.00;99796.13;1782290;80;21026;-69
2022/12/08 01:31:27;;;;;;;12.70;5.10;;;;;;;-2.82;100.00;99798.20;1782184;80;21092;-70
2022/12/08 01:33:54;;;;;;;13.23;5.17;;;;;;;-2.81;100.00;99793.78;1782089;80;21057;-70
2022/12/08 01:36:30;;;;;;;17.13;6.27;;;;;;;-2.79;100.00;99797.18;1782122;80;21514;-69
2022/12/08 01:39:00;;;;;;;12.77;5.63;;;;;;;-2.78;100.00;99811.65;1782305;80;21515;-71
2022/12/08 01:41:30;;;;;;;14.53;5.93;;;;;;;-2.76;100.00;99812.85;1781730;80;21021;-70
2022/12/08 01:44:12;;;;;;;13.13;5.40;;;;;;;-2.74;100.00;99818.45;1782260;80;21022;-70
2022/12/08 01:46:41;;;;;;;13.00;5.27;;;;;;;-2.74;100.00;99815.80;1782164;80;20986;-70
2022/12/08 01:49:17;;;;;;;11.60;4.97;;;;;;;-2.73;100.00;99815.32;1782382;80;21033;-69
2022/12/08 01:52:11;;;;;;;9.70;5.00;;;;;;;-2.75;100.00;99808.80;1782303;80;21037;-69
2022/12/08 01:54:46;;;;;;;12.17;4.97;;;;;;;-2.74;100.00;99804.38;1774617;80;21013;-70
2022/12/08 01:57:19;;;;;;;13.33;5.73;;;;;;;-2.75;100.00;99786.30;1781971;80;21057;-70
2022/12/08 01:59:51;;;;;;;13.45;5.90;;;;;;;-2.76;100.00;99787.26;1781935;80;21005;-69
2022/12/08 02:02:18;;;;;;;13.17;5.47;;;;;;;-2.75;100.00;99793.39;1782157;80;21510;-70
2022/12/08 02:04:45;;;;;;;11.60;5.13;;;;;;;-2.75;100.00;99792.07;1782014;80;21009;-70
2022/12/08 02:07:12;;;;;;;15.13;6.27;;;;;;;-2.75;100.00;99792.07;1782049;80;21001;-71
2022/12/08 02:09:40;;;;;;;15.10;6.17;;;;;;;-2.77;100.00;99796.13;1750976;80;21023;-70
2022/12/08 02:12:07;;;;;;;13.03;5.47;;;;;;;-2.78;100.00;99791.80;1777611;80;21072;-68
2022/12/08 06:17:47;;;;;;;26.50;11.10;;;;;;;-1.58;100.00;99764.39;1816956;79;23360;-68
2022/12/08 06:20:16;;;;;;;22.87;9.10;;;;;;;-1.47;100.00;99395.55;1772728;79;21040;-69
2022/12/08 06:22:47;;;;;;;23.07;9.10;;;;;;;-1.40;100.00;99371.16;1798024;80;21465;-68
2022/12/08 06:25:15;;;;;;;29.50;11.17;;;;;;;-1.36;100.00;99350.07;1771287;81;21061;-68
2022/12/08 06:27:42;;;;;;;29.87;11.00;;;;;;;-1.33;100.00;99325.12;1771121;81;21029;-68
2022/12/08 06:30:10;;;;;;;23.20;9.73;;;;;;;-1.28;100.00;99313.69;1790648;80;21073;-69
2022/12/08 06:32:39;;;;;;;22.93;9.37;;;;;;;-1.25;100.00;99308.16;1750973;81;21471;-66
2022/12/08 06:35:08;;;;;;;23.53;8.90;;;;;;;-1.29;100.00;99293.45;1753921;80;21022;-67
2022/12/08 06:37:36;;;;;;;21.20;9.13;;;;;;;-1.25;100.00;99291.41;1771592;81;21466;-68
2022/12/08 06:40:05;;;;;;;20.97;9.23;;;;;;;-1.19;100.00;99277.67;1776260;81;21022;-68
2022/12/08 06:42:44;;;;;;;24.43;8.93;;;;;;;-1.15;100.00;99263.23;1761262;81;21135;-68
2022/12/08 06:45:15;;;;;;;21.63;8.20;;;;;;;-1.11;100.00;99247.44;1779569;80;21109;-67
2022/12/08 06:47:43;;;;;;;22.63;8.67;;;;;;;-1.07;100.00;99236.12;1779502;81;21050;-68
2022/12/08 06:50:13;;;;;;;23.23;9.00;;;;;;;-1.06;100.00;99233.81;1779674;81;21563;-68
2022/12/08 06:52:41;;;;;;;21.73;7.87;;;;;;;-1.05;100.00;99229.72;1778909;81;21101;-68
2022/12/08 06:55:09;;;;;;;21.03;8.87;;;;;;;-1.03;100.00;99234.91;1769192;81;21050;-67
2022/12/08 06:57:36;;;;;;;25.63;10.23;;;;;;;-1.00;100.00;99236.02;1779829;81;20999;-66
2022/12/08 07:00:06;;;;;;;21.53;8.27;;;;;;;-0.99;100.00;99237.72;1779841;81;21476;-67
2022/12/08 07:02:34;;;;;;;23.23;8.63;;;;;;;-0.98;100.00;99242.88;1779771;81;20983;-67
2022/12/08 07:05:02;;;;;;;27.00;8.70;;;;;;;-0.98;100.00;99238.06;1779643;80;21038;-67
2022/12/08 07:07:29;;;;;;;20.67;8.67;;;;;;;-1.00;100.00;99244.81;1779506;81;21058;-67
2022/12/08 07:09:56;;;;;;;24.27;9.23;;;;;;;-1.00;100.00;99251.44;1779561;81;21464;-66
2022/12/08 07:12:23;;;;;;;22.33;8.93;;;;;;;-0.99;100.00;99253.15;1779651;81;21065;-66
2022/12/08 07:14:52;;;;;;;21.70;8.33;;;;;;;-1.00;100.00;99256.75;1775218;81;21010;-68
2022/12/08 07:18:02;;;;;;;18.83;8.20;;;;;;;-1.03;100.00;99265.43;1780885;79;21006;-68
2022/12/08 07:20:39;;;;;;;23.93;8.40;;;;;;;-1.06;100.00;99270.50;1763812;81;21074;-66
2022/12/08 07:23:09;;;;;;;19.30;7.93;;;;;;;-1.01;100.00;99272.78;1760918;81;21536;-66
2022/12/08 07:25:40;;;;;;;21.77;9.20;;;;;;;-0.99;100.00;99272.22;1758725;81;21335;-68
2022/12/08 07:28:12;;;;;;;21.05;7.95;;;;;;;-0.94;100.00;99274.02;1713210;81;21030;-66
2022/12/08 07:30:42;;;;;;;22.47;9.77;;;;;;;-0.94;100.00;99271.36;1731166;82;21042;-72
2022/12/08 07:33:16;;;;;;;19.00;8.43;;;;;;;-0.93;100.00;99260.28;1763273;80;21488;-73
2022/12/08 07:35:44;;;;;;;19.40;7.00;;;;;;;-0.90;100.00;99262.68;1738790;81;21543;-74
2022/12/08 07:38:12;;;;;;;17.27;7.10;;;;;;;-0.91;100.00;99262.33;1740087;82;21050;-72
2022/12/08 07:40:39;;;;;;;16.77;8.17;;;;;;;-0.94;100.00;99272.69;1715774;82;21098;-73
2022/12/08 07:43:07;;;;;;;17.97;7.30;;;;;;;-0.93;100.00;99275.72;1741748;82;21046;-73
2022/12/08 07:45:34;;;;;;;19.20;7.97;;;;;;;-0.90;100.00;99275.49;1740009;82;21066;-72
2022/12/08 07:48:03;;;;;;;22.17;8.03;;;;;;;-0.86;100.00;99284.06;1739974;82;21351;-73
2022/12/08 07:50:32;;;;;;;20.17;7.93;;;;;;;-0.84;100.00;99278.16;1740167;82;21054;-73
2022/12/08 07:53:00;;;;;;;20.60;8.37;;;;;;;-0.84;100.00;99285.63;1740251;82;21568;-72
2022/12/08 07:55:27;;;;;;;20.07;7.93;;;;;;;-0.82;100.00;99291.66;1741060;82;21015;-72
2022/12/08 07:57:55;;;;;;;17.30;7.10;;;;;;;-0.83;100.00;99289.98;1741815;81;21101;-75
2022/12/08 08:00:23;;;;;;;15.83;7.03;;;;;;;-0.81;100.00;99287.22;1740317;82;21065;-72
2022/12/08 08:02:50;;;;;;;16.47;7.47;;;;;;;-0.82;100.00;99296.12;1740727;82;21551;-72
2022/12/08 08:05:19;;;;;;;17.90;6.80;;;;;;;-0.81;100.00;99289.38;1708699;82;21085;-72
2022/12/08 08:07:47;;;;;;;16.53;7.13;;;;;;;-0.82;100.00;99287.67;1707845;84;21070;-75
2022/12/08 08:10:16;;;;;;;20.27;7.63;;;;;;;-0.80;100.00;99291.55;1707406;83;21114;-73
2022/12/08 08:12:43;;;;;;;18.83;7.77;;;;;;;-0.80;100.00;99290.22;1707628;84;21059;-74
2022/12/08 08:15:12;;;;;;;20.23;8.10;;;;;;;-0.79;100.00;99286.61;1708122;84;21050;-73
2022/12/08 08:17:40;;;;;;;21.37;8.53;;;;;;;-0.75;100.00;99280.59;1709011;83;21160;-74
2022/12/08 08:20:10;;;;;;;18.33;7.23;;;;;;;-0.74;100.00;99276.49;1755566;81;21065;-66
2022/12/08 08:22:38;;;;;;;17.77;7.20;;;;;;;-0.73;100.00;99282.64;1762999;81;21069;-65
2022/12/08 08:25:07;;;;;;;15.27;6.53;;;;;;;-0.73;100.00;99297.23;1762563;81;21055;-65
2022/12/08 08:27:36;;;;;;;20.20;7.43;;;;;;;-0.71;100.00;99298.80;1758623;81;20967;-75
2022/12/08 08:30:08;;;;;;;19.00;7.27;;;;;;;-0.70;100.00;99301.83;1740353;81;21499;-75
2022/12/08 08:32:37;;;;;;;20.50;8.07;;;;;;;-0.69;100.00;99293.38;1745332;82;21027;-73
2022/12/08 08:35:05;;;;;;;19.97;8.17;;;;;;;-0.69;100.00;99294.25;1742894;81;20990;-75
2022/12/08 08:37:33;;;;;;;15.57;6.90;;;;;;;-0.69;100.00;99308.84;1754939;81;20959;-75
2022/12/08 08:40:00;;;;;;;17.27;7.77;;;;;;;-0.68;100.00;99318.48;1703139;82;21014;-74
2022/12/08 08:42:27;;;;;;;20.13;7.27;;;;;;;-0.69;100.00;99313.29;1723266;82;21018;-75
2022/12/08 08:44:54;;;;;;;16.63;6.43;;;;;;;-0.70;100.00;99320.42;1722034;82;21426;-74
2022/12/08 08:47:21;;;;;;;18.90;7.37;;;;;;;-0.68;100.00;99330.92;1731381;81;21074;-75
2022/12/08 08:49:48;;;;;;;19.67;7.10;;;;;;;-0.66;100.00;99339.61;1741844;81;21503;-66
2022/12/08 08:52:15;;;;;;;19.63;8.20;;;;;;;-0.64;100.00;99332.38;1741367;81;21175;-64
2022/12/08 08:54:43;;;;;;;23.60;9.17;;;;;;;-0.60;100.00;99339.16;1746717;81;21049;-65
2022/12/08 08:57:12;;;;;;;18.80;8.87;;;;;;;-0.56;100.00;99343.27;1739012;81;21077;-66
2022/12/08 08:59:42;;;;;;;19.23;7.53;;;;;;;-0.56;100.00;99339.77;1717404;82;21070;-65
2022/12/08 09:02:20;;;;;;;21.17;7.73;;;;;;;-0.57;100.00;99338.91;1709678;82;21026;-65
2022/12/08 09:04:54;;;;;;;18.83;6.87;;;;;;;-0.56;100.00;99342.43;1673920;84;21018;-76
2022/12/08 09:07:21;;;;;;;16.70;7.27;;;;;;;-0.58;100.00;99354.49;1712574;84;21129;-75
2022/12/08 09:09:48;;;;;;;16.07;7.30;;;;;;;-0.56;100.00;99351.23;1727846;83;20966;-76
2022/12/08 09:12:16;;;;;;;20.23;8.70;;;;;;;-0.53;100.00;99360.30;1739255;81;21020;-76
2022/12/08 09:14:44;;;;;;;20.57;7.60;;;;;;;-0.52;100.00;99362.47;1726178;82;21016;-75
2022/12/08 09:17:12;;;;;;;15.90;7.77;;;;;;;-0.52;100.00;99367.29;1731511;81;21052;-74
2022/12/08 09:19:39;;;;;;;17.07;7.83;;;;;;;-0.51;100.00;99364.14;1742667;80;21033;-77
2022/12/08 09:22:07;;;;;;;19.03;8.53;;;;;;;-0.49;100.00;99360.42;1744079;81;21034;-77
2022/12/08 09:24:35;;;;;;;20.50;7.77;;;;;;;-0.49;100.00;99368.88;1742480;82;21043;-77
2022/12/08 09:27:03;;;;;;;27.50;11.00;;;;;;;-0.51;100.00;99361.03;1741512;82;21083;-77
2022/12/08 09:29:32;;;;;;;25.27;8.37;;;;;;;-0.53;100.00;99361.63;1742002;82;21052;-77
2022/12/08 09:31:59;;;;;;;19.10;8.67;;;;;;;-0.49;100.00;99367.55;1741715;82;21014;-75
2022/12/08 09:34:26;;;;;;;22.70;9.27;;;;;;;-0.45;100.00;99374.31;1764387;81;21030;-76
2022/12/08 09:36:55;;;;;;;18.53;7.87;;;;;;;-0.45;100.00;99372.50;1762725;81;21493;-75
2022/12/08 09:39:22;;;;;;;17.87;7.47;;;;;;;-0.43;100.00;99373.22;1761914;81;20995;-73
2022/12/08 09:41:55;;;;;;;17.47;8.17;;;;;;;-0.40;100.00;99370.83;1740019;81;21090;-74
2022/12/08 09:44:58;;;;;;;19.90;7.27;;;;;;;-0.42;100.00;99374.09;1749459;82;20945;-75
2022/12/08 09:47:33;;;;;;;15.80;6.93;;;;;;;-0.44;100.00;99383.50;1729619;81;21016;-75
2022/12/08 09:50:34;;;;;;;18.70;7.30;;;;;;;-0.46;100.00;99376.14;1741251;82;21095;-74
2022/12/08 09:53:10;;;;;;;18.70;7.57;;;;;;;-0.46;100.00;99376.59;1756150;82;21561;-66
2022/12/08 09:55:49;;;;;;;22.00;7.90;;;;;;;-0.44;100.00;99379.52;1757499;81;20966;-65
2022/12/08 09:58:32;;;;;;;18.30;7.47;;;;;;;-0.44;100.00;99382.66;1753430;82;21020;-74
2022/12/08 10:01:07;;;;;;;17.93;7.30;;;;;;;-0.42;100.00;99388.21;1714473;84;20990;-74
2022/12/08 10:03:35;;;;;;;19.30;8.03;;;;;;;-0.39;100.00;99392.42;1692420;84;21032;-76
2022/12/08 10:06:21;;;;;;;18.87;8.40;;;;;;;-0.36;100.00;99391.36;1714021;83;21060;-74
2022/12/08 10:09:13;;;;;;;22.53;9.00;;;;;;;-0.37;100.00;99393.19;1713556;83;21502;-74
2022/12/08 10:12:10;;;;;;;18.43;8.00;;;;;;;-0.38;100.00;99391.48;1687240;83;21871;-73
2022/12/08 10:15:00;;;;;;;18.70;8.00;;;;;;;-0.39;100.00;99395.95;1713249;84;21052;-76
2022/12/08 10:17:47;;;;;;;15.70;6.53;;;;;;;-0.40;100.00;99400.05;1714189;83;21084;-74
2022/12/08 10:20:24;;;;;;;18.43;7.70;;;;;;;-0.45;100.00;99404.38;1732582;83;21023;-74
2022/12/08 10:23:02;;;;;;;16.73;6.97;;;;;;;-0.43;100.00;99405.59;1731557;83;21055;-74
2022/12/08 10:26:00;;;;;;;17.90;6.87;;;;;;;-0.43;100.00;99406.42;1706505;83;21090;-74
2022/12/08 10:28:30;;;;;;;18.27;7.30;;;;;;;-0.41;100.00;99395.69;1731066;82;21005;-73
2022/12/08 10:30:57;;;;;;;16.37;6.97;;;;;;;-0.40;100.00;99397.39;1734136;82;21053;-73
2022/12/08 10:33:27;;;;;;;15.37;6.73;;;;;;;-0.38;100.00;99410.08;1730073;83;20985;-73
2022/12/08 10:36:01;;;;;;;19.40;8.13;;;;;;;-0.35;100.00;99414.29;1729826;83;21013;-74
2022/12/08 10:38:37;;;;;;;18.30;7.37;;;;;;;-0.35;100.00;99405.86;1730647;82;20976;-74
2022/12/08 10:41:18;;;;;;;15.67;6.23;;;;;;;-0.33;100.00;99407.08;1731916;83;21122;-74
2022/12/08 10:43:57;;;;;;;15.40;6.87;;;;;;;-0.32;100.00;99411.41;1731803;82;21023;-74
2022/12/08 10:46:25;;;;;;;13.20;5.97;;;;;;;-0.29;100.00;99418.66;1730903;82;21052;-75
2022/12/08 10:48:54;;;;;;;14.13;6.10;;;;;;;-0.28;100.00;99420.38;1729309;83;21063;-73
2022/12/08 10:51:37;;;;;;;19.20;8.17;;;;;;;-0.26;100.00;99425.57;1729905;83;21027;-75
2022/12/08 10:54:26;;;;;;;;;;;;;;;-0.26;100.00;99423.75;1733030;82;21047;-77
2022/12/08 10:56:56;;;;;;;15.63;6.40;;;;;;;-0.28;100.00;99417.71;1730157;82;20142;-75
2022/12/08 10:59:26;;;;;;;15.03;6.00;;;;;;;-0.27;100.00;99422.53;1729018;82;20935;-75
2022/12/08 11:01:55;;;;;;;15.00;6.10;;;;;;;-0.28;100.00;99424.35;1732996;83;21625;-76
2022/12/08 11:04:37;;;;;;;11.30;5.23;;;;;;;-0.27;100.00;99421.20;1737511;82;21032;-75
2022/12/08 11:07:07;;;;;;;13.33;5.63;;;;;;;-0.28;100.00;99422.19;1739878;82;21044;-76
2022/12/08 11:09:47;;;;;;;10.73;5.43;;;;;;;-0.28;100.00;99416.38;1740272;82;21090;-75
2022/12/08 11:12:15;;;;;;;13.70;5.77;;;;;;;-0.28;100.00;99415.05;1739767;82;21506;-75
2022/12/08 11:15:02;;;;;;;12.93;5.00;;;;;;;-0.26;100.00;99410.95;1740157;82;21064;-76
2022/12/08 11:17:38;;;;;;;10.87;5.30;;;;;;;-0.25;100.00;99417.48;1739758;82;21083;-73
2022/12/08 11:20:10;;;;;;;11.73;5.57;;;;;;;-0.25;100.00;99409.52;1740072;81;21029;-76
2022/12/08 11:22:39;;;;;;;;;;;;;;;-0.27;100.00;99410.09;1740450;82;21060;-75
2022/12/08 11:25:25;;;;;;;12.47;6.40;;;;;;;-0.29;100.00;99409.86;1739891;82;20420;-76
2022/12/08 11:27:56;;;;;;;13.77;5.90;;;;;;;-0.32;100.00;99410.08;1717423;82;21054;-76
2022/12/08 11:30:33;;;;;;;16.80;6.50;;;;;;;-0.34;100.00;99409.36;1701854;84;21040;-65
2022/12/08 11:33:20;;;;;;;11.23;5.67;;;;;;;-0.34;100.00;99417.33;1708126;83;21613;-66
2022/12/08 11:35:52;;;;;;;15.70;5.70;;;;;;;-0.34;100.00;99412.02;1708354;83;20989;-77
2022/12/08 11:38:22;;;;;;;15.07;5.53;;;;;;;-0.33;100.00;99412.39;1707971;84;21033;-75
2022/12/08 11:40:58;;;;;;;15.93;6.77;;;;;;;-0.35;100.00;99399.22;1709139;84;21045;-80
2022/12/08 11:43:59;;;;;;;12.10;5.40;;;;;;;-0.36;100.00;99402.83;1708265;83;21002;-77
2022/12/08 11:46:55;;;;;;;12.07;5.33;;;;;;;-0.38;100.00;99402.10;1707794;83;21021;-78
2022/12/08 11:49:35;;;;;;;16.33;6.57;;;;;;;-0.36;100.00;99399.33;1708716;82;21009;-78
2022/12/08 11:52:27;;;;;;;12.57;6.30;;;;;;;-0.38;100.00;99402.10;1708133;84;21119;-77
2022/12/08 11:55:20;;;;;;;15.47;6.43;;;;;;;-0.38;100.00;99402.10;1708349;84;21044;-77
2022/12/08 11:57:47;;;;;;;16.07;6.77;;;;;;;-0.40;100.00;99396.91;1708091;84;21084;-76
2022/12/08 12:00:18;;;;;;;17.00;6.93;;;;;;;-0.37;100.00;99406.92;1684963;84;21048;-76
2022/12/08 12:03:15;;;;;;;;;;;;;;;;;;;;;
2022/12/08 12:09:14;;;;;;;11.63;5.50;;;;;;;-0.35;100.00;99412.50;1719477;83;21080;-76
2022/12/08 12:12:23;;;;;;;11.43;5.10;;;;;;;-0.34;100.00;99418.66;1676185;84;21497;-77
2022/12/08 12:14:59;;;;;;;11.23;5.47;;;;;;;-0.34;100.00;99419.98;1659022;86;21017;-67
2022/12/08 12:18:04;;;;;;;10.07;5.23;;;;;;;-0.35;100.00;99422.27;1658696;86;21015;-67
2022/12/08 12:20:39;;;;;;;13.67;5.53;;;;;;;-0.36;100.00;99429.88;1664602;86;21499;-69
2022/12/08 12:23:29;;;;;;;15.77;5.67;;;;;;;-0.40;100.00;99432.77;1684955;85;21079;-67
2022/12/08 12:25:59;;;;;;;11.80;5.67;;;;;;;-0.39;100.00;99436.26;1692595;84;21071;-69
2022/12/08 12:28:30;;;;;;;15.60;6.37;;;;;;;-0.38;100.00;99440.62;1691464;84;21521;-68
2022/12/08 12:31:07;;;;;;;16.40;5.93;;;;;;;-0.36;100.00;99448.48;1736264;82;21009;-76
2022/12/08 12:33:35;;;;;;;14.63;6.60;;;;;;;-0.34;100.00;99448.72;1752279;82;21009;-76
2022/12/08 12:36:05;;;;;;;13.87;6.00;;;;;;;-0.31;100.00;99447.66;1752097;82;21061;-74
2022/12/08 12:41:44;;;;;;;14.60;6.00;;;;;;;-0.26;100.00;99461.44;1752810;82;21042;-76
2022/12/08 12:44:21;;;;;;;15.77;6.30;;;;;;;-0.25;100.00;99467.97;1726438;82;21009;-76
2022/12/08 12:46:59;;;;;;;14.80;5.47;;;;;;;-0.23;100.00;99478.00;1745103;82;20998;-76
2022/12/08 12:49:44;;;;;;;15.47;5.60;;;;;;;-0.23;100.00;99485.97;1725207;83;21021;-76
2022/12/08 12:52:20;;;;;;;13.00;5.83;;;;;;;-0.20;100.00;99494.17;1716488;83;21026;-76
2022/12/08 12:54:58;;;;;;;17.07;6.77;;;;;;;-0.18;100.00;99495.39;1719989;83;21093;-75
2022/12/08 12:57:55;;;;;;;16.90;6.60;;;;;;;-0.15;100.00;99496.50;1723030;82;21032;-67
2022/12/08 13:00:25;;;;;;;15.10;5.90;;;;;;;-0.12;100.00;99500.26;1722628;83;21045;-68
2022/12/08 13:02:57;;;;;;;15.83;6.53;;;;;;;-0.08;100.00;99507.86;1719578;83;21010;-67
2022/12/08 13:05:32;;;;;;;16.27;6.43;;;;;;;-0.07;100.00;99508.70;1721302;83;21085;-66
2022/12/08 13:08:06;;;;;;;16.70;6.77;;;;;;;-0.08;100.00;99511.85;1724415;81;21109;-66
2022/12/08 13:29:37;;;;;;;18.73;8.40;;;;;;;0.19;100.00;100025.25;1791847;80;22898;-72
2022/12/08 13:32:10;;;;;;;17.03;7.37;;;;;;;0.21;100.00;99526.06;1732163;83;21018;-72
2022/12/08 13:34:50;;;;;;;17.73;7.22;;;;;;;0.22;100.00;99529.09;1732541;82;21454;-72
2022/12/08 13:37:25;;;;;;;17.33;8.43;;;;;;;0.20;100.00;99530.19;1732458;83;21037;-75
2022/12/08 13:40:09;;;;;;;16.70;6.67;;;;;;;0.17;100.00;99532.59;1732673;83;21073;-73
2022/12/08 13:42:43;;;;;;;14.07;5.90;;;;;;;0.15;100.00;99541.17;1732734;83;21060;-72
2022/12/08 13:45:16;;;;;;;18.93;6.83;;;;;;;0.13;100.00;99538.63;1731586;83;21048;-72
2022/12/08 13:48:06;;;;;;;15.35;6.08;;;;;;;0.13;100.00;99539.95;1731374;83;21096;-73
2022/12/08 13:50:47;;;;;;;18.33;6.73;;;;;;;0.14;100.00;99552.30;1700839;84;21353;-73
2022/12/08 13:53:19;;;;;;;16.10;7.20;;;;;;;0.14;100.00;99539.45;1731701;83;21574;-73
2022/12/08 13:55:49;;;;;;;16.10;6.40;;;;;;;0.15;100.00;99542.50;1701410;84;21034;-73
2022/12/08 13:58:18;;;;;;;13.13;6.20;;;;;;;0.13;100.00;99540.44;1732407;83;21049;-73
2022/12/08 14:01:00;;;;;;;14.50;5.37;;;;;;;0.13;100.00;99558.56;1701851;84;21018;-72
2022/12/08 14:03:27;;;;;;;14.23;5.77;;;;;;;0.11;100.00;99551.19;1732948;83;21503;-72
2022/12/08 14:05:54;;;;;;;15.10;6.10;;;;;;;0.09;100.00;99545.60;1701972;84;21131;-72
2022/12/08 14:08:33;;;;;;;14.37;5.57;;;;;;;0.07;100.00;99550.20;1732626;83;20990;-72
2022/12/08 14:11:03;;;;;;;13.93;5.97;;;;;;;0.05;100.00;99553.45;1732598;83;21079;-71
2022/12/08 14:13:31;;;;;;;14.83;6.30;;;;;;;0.03;100.00;99560.21;1702119;84;21018;-72
2022/12/08 14:15:58;;;;;;;13.57;6.13;;;;;;;0.03;100.00;99558.05;1732617;82;21048;-72
2022/12/08 14:18:28;;;;;;;15.20;6.00;;;;;;;0.02;100.00;99555.88;1702138;84;21113;-72
2022/12/08 14:21:05;;;;;;;12.97;6.13;;;;;;;0.01;100.00;99565.30;1732899;83;21033;-71
2022/12/08 14:23:35;;;;;;;12.33;5.80;;;;;;;-0.01;100.00;99572.05;1732845;83;20989;-71
2022/12/08 14:26:04;;;;;;;14.80;6.00;;;;;;;0.01;100.00;99579.42;1732683;83;21507;-71
2022/12/08 14:28:33;;;;;;;13.63;6.00;;;;;;;0.04;100.00;99600.96;1735005;82;21566;-72
2022/12/08 14:31:00;;;;;;;16.27;5.73;;;;;;;0.07;100.00;99607.35;1711173;83;21549;-72
2022/12/08 14:33:27;;;;;;;18.37;6.27;;;;;;;0.07;100.00;99610.88;1706683;84;21050;-72
2022/12/08 14:35:54;;;;;;;15.73;6.00;;;;;;;0.09;100.00;99614.73;1737522;83;21072;-72
2022/12/08 14:38:23;;;;;;;14.40;5.93;;;;;;;0.11;100.00;99618.98;1706636;84;21082;-72
2022/12/08 14:41:07;;;;;;;15.10;6.03;;;;;;;0.11;100.00;99649.56;1710882;83;21446;-72
2022/12/08 14:43:36;;;;;;;17.57;7.10;;;;;;;0.12;100.00;99644.59;1707002;84;21011;-73
2022/12/08 14:46:07;;;;;;;19.03;5.80;;;;;;;0.11;100.00;99650.89;1737453;83;21170;-72
2022/12/08 14:48:40;;;;;;;13.43;5.50;;;;;;;0.11;100.00;99667.33;1678415;84;21029;-72
2022/12/08 14:51:30;;;;;;;14.63;6.33;;;;;;;0.09;100.00;99688.71;1737761;81;21032;-72
2022/12/08 14:54:13;;;;;;;17.17;6.27;;;;;;;0.11;100.00;99699.23;1706923;84;21031;-71
2022/12/08 14:56:49;;;;;;;15.58;5.55;;;;;;;0.11;100.00;99695.25;1737627;83;21053;-71
2022/12/08 14:59:29;;;;;;;14.97;5.60;;;;;;;0.12;100.00;99704.41;1737661;83;21479;-71
2022/12/08 15:02:21;;;;;;;17.80;6.43;;;;;;;0.13;100.00;99703.47;1737461;83;21085;-73
2022/12/08 15:04:59;;;;;;;18.48;6.78;;;;;;;0.13;100.00;99707.94;1737802;83;21009;-70
2022/12/08 15:07:37;;;;;;;16.30;5.60;;;;;;;0.15;100.00;99711.33;1737673;83;21542;-72
2022/12/08 15:10:15;;;;;;;15.57;5.80;;;;;;;0.16;100.00;99715.67;1705337;83;21102;-70
2022/12/08 15:13:07;;;;;;;14.10;6.27;;;;;;;0.19;100.00;99720.77;1733079;83;21083;-71
2022/12/08 15:15:56;;;;;;;15.53;6.30;;;;;;;0.20;100.00;99729.63;1729968;83;21013;-72
2022/12/08 15:18:38;;;;;;;16.20;6.07;;;;;;;0.21;100.00;99737.95;1720277;83;20987;-70
2022/12/08 15:21:07;;;;;;;14.13;5.77;;;;;;;0.22;100.00;99747.64;1733641;83;21001;-72
2022/12/08 15:23:46;;;;;;;17.40;6.30;;;;;;;0.22;100.00;99749.81;1733841;83;21013;-72
2022/12/08 15:26:22;;;;;;;14.37;5.80;;;;;;;0.24;100.00;99759.01;1732286;83;20970;-71
2022/12/08 15:28:48;;;;;;;16.10;6.03;;;;;;;0.25;100.00;99753.58;1727193;83;21025;-71
2022/12/08 15:31:17;;;;;;;14.77;6.40;;;;;;;0.25;100.00;99760.23;1727351;83;20999;-71
2022/12/08 15:33:44;;;;;;;16.43;6.90;;;;;;;0.26;100.00;99766.39;1727003;83;21046;-72
2022/12/08 15:36:11;;;;;;;15.20;6.73;;;;;;;0.26;100.00;99775.70;1727182;83;21467;-71
2022/12/08 15:38:39;;;;;;;15.17;6.10;;;;;;;0.26;100.00;99770.38;1726642;83;21045;-71
2022/12/08 15:41:06;;;;;;;12.80;6.47;;;;;;;0.25;100.00;99762.89;1723517;83;21018;-72
2022/12/08 15:43:34;;;;;;;16.60;6.60;;;;;;;0.27;100.00;99761.45;1726343;83;21049;-71
2022/12/08 15:46:01;;;;;;;12.87;5.33;;;;;;;0.28;100.00;99765.79;1726761;83;21038;-72
2022/12/08 15:48:29;;;;;;;11.07;5.13;;;;;;;0.27;100.00;99766.28;1679281;83;21046;-72
2022/12/08 15:50:57;;;;;;;13.60;5.57;;;;;;;0.27;100.00;99771.59;1727053;83;21479;-72
2022/12/08 15:53:25;;;;;;;11.80;5.43;;;;;;;0.27;100.00;99766.77;1726628;83;21038;-72
2022/12/08 15:55:52;;;;;;;14.70;5.67;;;;;;;0.27;100.00;99772.93;1727189;83;21034;-72
2022/12/08 15:58:24;;;;;;;15.53;6.87;;;;;;;0.29;100.00;99770.16;1727171;83;21531;-72
2022/12/08 16:00:51;;;;;;;11.67;6.00;;;;;;;0.30;100.00;99773.17;1727507;83;21456;-73
2022/12/08 18:20:10;;;;;;;21.07;8.07;;;;;;;0.16;100.00;101313.58;1808841;79;22952;-67
2022/12/08 18:22:38;;;;;;;19.77;7.67;;;;;;;0.23;100.00;100363.66;1782904;80;21049;-67
2022/12/08 18:25:07;;;;;;;20.20;8.63;;;;;;;0.26;100.00;100323.57;1782643;80;21069;-66
2022/12/08 18:27:38;;;;;;;21.70;8.50;;;;;;;0.28;100.00;100311.02;1782927;80;21052;-67
2022/12/08 18:30:08;;;;;;;19.07;7.33;;;;;;;0.29;100.00;100320.73;1782615;80;21029;-66
2022/12/08 18:32:36;;;;;;;20.67;8.40;;;;;;;0.31;100.00;100317.48;1782519;80;21489;-67
2022/12/08 18:35:05;;;;;;;16.83;7.20;;;;;;;0.30;100.00;100321.96;1782518;80;21075;-67